Time;durP1;ratioP1;P1;durP2;ratioP2;P2;SDS_P1;SDS_P2;PMS_P1;PMS_P2;Temp;Humidity;BMP_temperature;BMP_pressure;BME280_temperature;BME280_humidity;BME280_pressure;Samples;Min_cycle;Max_cycle;Signal;HPM_P1;HPM_P2
2024/05/05 00:00:31;;;;;;;16.48;14.02;;;11.80;99.90;;;;;;5377971;26;20015;-71
2024/05/05 00:02:57;;;;;;;15.40;13.90;;;11.80;99.90;;;;;;5377560;26;20006;-72
2024/05/05 00:05:23;;;;;;;16.00;13.40;;;11.80;99.90;;;;;;5377914;26;20011;-68
2024/05/05 00:07:49;;;;;;;14.93;13.43;;;11.80;99.90;;;;;;5377820;26;20449;-68
2024/05/05 00:10:15;;;;;;;15.30;13.80;;;11.80;99.90;;;;;;5378305;26;20453;-70
2024/05/05 00:12:41;;;;;;;;;;;11.80;99.90;;;;;;5376825;26;19996;-68
2024/05/05 00:15:07;;;;;;;15.57;13.98;;;11.80;99.90;;;;;;5377358;26;19926;-71
2024/05/05 00:17:33;;;;;;;17.50;14.80;;;11.80;99.90;;;;;;5377064;26;20004;-67
2024/05/05 00:20:00;;;;;;;18.17;14.55;;;11.80;99.90;;;;;;5377505;26;20000;-67
2024/05/05 00:22:25;;;;;;;18.40;15.57;;;11.80;99.90;;;;;;5377573;26;20000;-66
2024/05/05 00:24:51;;;;;;;16.33;14.53;;;11.80;99.90;;;;;;5377673;26;20115;-65
2024/05/05 00:27:17;;;;;;;17.40;15.60;;;11.80;99.90;;;;;;5377042;26;20008;-65
2024/05/05 00:29:43;;;;;;;18.35;16.35;;;11.80;99.90;;;;;;5377596;26;20473;-64
2024/05/05 00:32:09;;;;;;;21.25;15.30;;;11.80;99.90;;;;;;5377004;26;20076;-66
2024/05/05 00:34:35;;;;;;;18.90;15.57;;;11.80;99.90;;;;;;5377453;26;20000;-67
2024/05/05 00:37:00;;;;;;;18.60;16.57;;;11.70;99.90;;;;;;5376508;26;20092;-66
2024/05/05 00:39:26;;;;;;;20.08;16.75;;;11.80;99.90;;;;;;5377503;26;20000;-68
2024/05/05 00:41:52;;;;;;;22.13;17.00;;;11.80;99.90;;;;;;5376853;26;20011;-66
2024/05/05 00:44:18;;;;;;;20.17;16.95;;;11.70;99.90;;;;;;5375387;26;20227;-63
2024/05/05 00:46:44;;;;;;;20.27;16.63;;;11.80;99.90;;;;;;5377640;26;20384;-63
2024/05/05 00:49:12;;;;;;;18.38;16.42;;;11.70;99.90;;;;;;5377349;26;20004;-63
2024/05/05 00:51:39;;;;;;;20.02;15.48;;;11.80;99.90;;;;;;5375307;26;20004;-66
2024/05/05 00:54:07;;;;;;;19.20;17.13;;;11.80;99.90;;;;;;5376922;26;20000;-66
2024/05/05 00:56:35;;;;;;;20.90;16.33;;;11.80;99.90;;;;;;5380244;26;20346;-66
2024/05/05 00:59:02;;;;;;;21.40;16.73;;;11.80;99.90;;;;;;5380180;26;20032;-68
2024/05/05 01:01:28;;;;;;;25.90;17.42;;;11.70;99.90;;;;;;5381108;26;20008;-71
2024/05/05 01:03:54;;;;;;;19.23;16.55;;;11.80;99.90;;;;;;5380215;26;20000;-72
2024/05/05 01:06:22;;;;;;;18.57;16.57;;;11.70;99.90;;;;;;5380062;26;20007;-69
2024/05/05 01:08:54;;;;;;;20.73;17.23;;;11.70;99.90;;;;;;5380262;26;20218;-67
2024/05/05 01:11:20;;;;;;;19.17;17.08;;;11.80;99.90;;;;;;5380918;26;20008;-71
2024/05/05 01:13:46;;;;;;;;;;;11.80;99.90;;;;;;5381249;26;19996;-70
2024/05/05 01:16:14;;;;;;;20.17;16.67;;;11.70;99.90;;;;;;5379879;26;20277;-69
2024/05/05 01:18:41;;;;;;;18.10;16.08;;;11.80;99.90;;;;;;5380269;26;20012;-68
2024/05/05 01:21:07;;;;;;;18.60;16.70;;;11.80;99.90;;;;;;5379925;26;20069;-68
2024/05/05 01:23:36;;;;;;;19.33;17.17;;;11.80;99.90;;;;;;5381054;26;20000;-70
2024/05/05 01:26:02;;;;;;;18.73;16.73;;;11.70;99.90;;;;;;5379347;26;20000;-70
2024/05/05 01:28:29;;;;;;;18.90;16.90;;;11.70;99.90;;;;;;5380053;26;20004;-69
2024/05/05 01:30:55;;;;;;;17.93;16.03;;;11.70;99.90;;;;;;5377999;26;20069;-70
2024/05/05 01:33:20;;;;;;;17.75;15.85;;;11.80;99.90;;;;;;5380468;26;20004;-69
2024/05/05 01:35:47;;;;;;;18.83;15.95;;;11.70;99.90;;;;;;5380060;26;20004;-68
2024/05/05 01:38:13;;;;;;;19.45;17.45;;;11.80;99.90;;;;;;5379568;26;20011;-68
2024/05/05 01:40:38;;;;;;;19.50;17.35;;;11.70;99.90;;;;;;5380210;26;20000;-69
2024/05/05 01:43:04;;;;;;;18.77;16.87;;;11.70;99.90;;;;;;5380354;26;20011;-69
2024/05/05 01:45:30;;;;;;;21.02;17.67;;;11.70;99.90;;;;;;5380388;26;20011;-68
2024/05/05 01:47:56;;;;;;;17.43;15.73;;;11.70;99.90;;;;;;5378858;26;20007;-68
2024/05/05 01:50:21;;;;;;;17.65;15.75;;;11.70;99.90;;;;;;5379662;26;20027;-69
2024/05/05 01:52:47;;;;;;;18.25;16.42;;;11.70;99.90;;;;;;5379644;26;20004;-67
2024/05/05 01:55:13;;;;;;;19.35;16.50;;;11.70;99.90;;;;;;5380058;26;20077;-68
2024/05/05 01:57:39;;;;;;;18.20;15.70;;;11.70;99.90;;;;;;5377399;26;20000;-69
2024/05/05 02:00:05;;;;;;;17.43;15.43;;;11.70;99.90;;;;;;5379511;26;20361;-67
2024/05/05 02:02:31;;;;;;;;;;;11.70;99.90;;;;;;5380174;26;20548;-68
2024/05/05 02:04:57;;;;;;;20.35;17.35;;;11.70;99.90;;;;;;5379476;26;19933;-68
2024/05/05 02:07:22;;;;;;;19.52;16.20;;;11.70;99.90;;;;;;5377927;26;20011;-67
2024/05/05 02:09:48;;;;;;;19.03;17.03;;;11.70;99.90;;;;;;5379542;26;20000;-67
2024/05/05 02:12:14;;;;;;;19.90;16.73;;;11.70;99.90;;;;;;5379632;26;20000;-67
2024/05/05 02:14:40;;;;;;;;;;;11.70;99.90;;;;;;5380730;26;20020;-66
2024/05/05 02:17:06;;;;;;;19.38;16.15;;;11.70;99.90;;;;;;5379639;26;19926;-67
2024/05/05 02:19:32;;;;;;;19.30;17.33;;;11.70;99.90;;;;;;5379711;26;20073;-66
2024/05/05 02:21:58;;;;;;;18.60;16.52;;;11.70;99.90;;;;;;5379232;26;20012;-68
2024/05/05 02:24:24;;;;;;;20.33;18.17;;;11.70;99.90;;;;;;5379405;26;20008;-69
2024/05/05 02:26:50;;;;;;;19.52;17.50;;;11.70;99.90;;;;;;5347883;26;20270;-69
2024/05/05 02:29:16;;;;;;;18.30;16.35;;;11.70;99.90;;;;;;5379428;26;20011;-68
2024/05/05 02:31:42;;;;;;;18.90;16.95;;;11.70;99.90;;;;;;5379584;26;20032;-68
2024/05/05 02:34:07;;;;;;;20.17;17.07;;;11.70;99.90;;;;;;5379257;26;20004;-68
2024/05/05 02:36:33;;;;;;;18.83;16.07;;;11.70;99.90;;;;;;5378857;26;20234;-68
2024/05/05 02:38:59;;;;;;;18.92;16.95;;;11.60;99.90;;;;;;5379176;26;20000;-67
2024/05/05 02:41:26;;;;;;;20.63;17.33;;;11.70;99.90;;;;;;5379160;26;20011;-68
2024/05/05 02:43:51;;;;;;;19.73;17.63;;;11.60;99.90;;;;;;5378688;26;20034;-67
2024/05/05 02:46:17;;;;;;;18.83;16.63;;;11.70;99.90;;;;;;5378656;26;20501;-67
2024/05/05 02:48:43;;;;;;;20.27;18.27;;;11.70;99.90;;;;;;5377225;26;20258;-66
2024/05/05 02:51:09;;;;;;;19.45;17.45;;;11.60;99.90;;;;;;5378934;26;20015;-74
2024/05/05 02:53:35;;;;;;;19.73;17.60;;;11.60;99.90;;;;;;5379353;26;20000;-66
2024/05/05 02:56:01;;;;;;;20.87;17.13;;;11.60;99.90;;;;;;5377905;26;20627;-70
2024/05/05 02:58:26;;;;;;;20.57;18.43;;;11.60;99.90;;;;;;5377529;26;19996;-64
2024/05/05 03:00:52;;;;;;;21.73;17.90;;;11.60;99.90;;;;;;5378527;26;20230;-70
2024/05/05 03:03:18;;;;;;;20.13;18.03;;;11.60;99.90;;;;;;5379506;26;20000;-68
2024/05/05 03:05:44;;;;;;;19.60;16.50;;;11.60;99.90;;;;;;5379453;26;20000;-71
2024/05/05 03:08:11;;;;;;;19.23;16.77;;;11.60;99.90;;;;;;5378572;26;20001;-67
2024/05/05 03:10:39;;;;;;;20.85;18.60;;;11.60;99.90;;;;;;5378606;26;20011;-81
2024/05/05 03:13:05;;;;;;;19.58;17.58;;;11.60;99.90;;;;;;5376976;26;20028;-66
2024/05/05 03:15:37;;;;;;;22.33;17.60;;;11.60;99.90;;;;;;5379008;26;20012;-67
2024/05/05 03:18:03;;;;;;;20.27;18.27;;;11.60;99.90;;;;;;5377529;26;20015;-68
2024/05/05 03:20:29;;;;;;;20.88;16.85;;;11.60;99.90;;;;;;5378577;26;20046;-68
2024/05/05 03:22:55;;;;;;;20.47;17.70;;;11.60;99.90;;;;;;5378121;26;20040;-68
2024/05/05 03:25:21;;;;;;;20.57;17.63;;;11.60;99.90;;;;;;5378894;26;20222;-73
2024/05/05 03:27:48;;;;;;;19.48;17.33;;;11.60;99.90;;;;;;5377968;26;20011;-65
2024/05/05 03:30:17;;;;;;;20.13;17.38;;;11.50;99.90;;;;;;5378703;26;20000;-71
2024/05/05 03:32:42;;;;;;;18.98;16.95;;;11.50;99.90;;;;;;5377913;26;20522;-63
2024/05/05 03:35:13;;;;;;;22.27;17.20;;;11.60;99.90;;;;;;5378364;26;20000;-68
2024/05/05 03:37:38;;;;;;;19.60;17.23;;;11.50;99.90;;;;;;5377807;26;20500;-67
2024/05/05 03:40:05;;;;;;;21.70;18.77;;;11.50;99.90;;;;;;5378209;26;20226;-67
2024/05/05 03:42:34;;;;;;;22.20;17.17;;;11.60;99.90;;;;;;5378602;26;20016;-67
2024/05/05 03:44:59;;;;;;;21.27;18.97;;;11.50;99.90;;;;;;5378292;26;20007;-67
2024/05/05 03:47:25;;;;;;;21.13;18.63;;;11.60;99.90;;;;;;5377831;26;20000;-67
2024/05/05 03:50:01;;;;;;;21.75;17.63;;;11.50;99.90;;;;;;5377812;26;20580;-68
2024/05/05 03:52:27;;;;;;;20.50;18.40;;;11.50;99.90;;;;;;5378247;26;20063;-65
2024/05/05 03:54:53;;;;;;;21.08;18.85;;;11.50;99.90;;;;;;5377902;26;20016;-70
2024/05/05 03:57:18;;;;;;;21.57;19.00;;;11.50;99.90;;;;;;5377902;26;19996;-69
2024/05/05 03:59:44;;;;;;;25.13;20.67;;;11.50;99.90;;;;;;5406393;26;20000;-68
2024/05/05 04:02:10;;;;;;;22.10;18.37;;;11.50;99.90;;;;;;5378050;26;20008;-68
2024/05/05 04:04:36;;;;;;;20.93;18.43;;;11.50;99.90;;;;;;5378463;26;20751;-67
2024/05/05 04:07:01;;;;;;;22.80;18.23;;;11.50;99.90;;;;;;5377338;26;20453;-67
2024/05/05 04:09:27;;;;;;;22.13;19.27;;;11.60;99.90;;;;;;5378364;26;20527;-69
2024/05/05 04:11:53;;;;;;;19.55;17.45;;;11.60;99.90;;;;;;5377625;26;20460;-68
2024/05/05 04:14:19;;;;;;;23.03;18.67;;;11.60;99.90;;;;;;5377786;26;20012;-67
2024/05/05 04:16:46;;;;;;;;;;;11.60;99.90;;;;;;5378015;26;20000;-67
2024/05/05 04:19:14;;;;;;;19.83;17.73;;;11.60;99.90;;;;;;5377254;26;20255;-68
2024/05/05 04:21:39;;;;;;;22.13;18.45;;;11.50;99.90;;;;;;5376074;26;20011;-67
2024/05/05 04:24:05;;;;;;;22.37;18.33;;;11.60;99.90;;;;;;5377149;26;19996;-68
2024/05/05 04:26:31;;;;;;;21.73;19.53;;;11.60;99.90;;;;;;5377295;26;20000;-67
2024/05/05 04:28:57;;;;;;;21.57;18.87;;;11.60;99.90;;;;;;5405038;26;20434;-68
2024/05/05 04:31:26;;;;;;;21.55;18.90;;;11.60;99.90;;;;;;5380878;26;20000;-66
2024/05/05 04:33:52;;;;;;;21.20;18.50;;;11.60;99.90;;;;;;5380470;26;20032;-67
2024/05/05 04:36:18;;;;;;;21.77;17.73;;;11.60;99.90;;;;;;5380395;26;20011;-67
2024/05/05 04:38:43;;;;;;;24.30;20.17;;;11.60;99.90;;;;;;5380728;26;20008;-66
2024/05/05 04:41:09;;;;;;;21.55;19.15;;;11.60;99.90;;;;;;5380453;26;20012;-66
2024/05/05 04:43:35;;;;;;;22.83;17.63;;;11.60;99.90;;;;;;5380763;26;20074;-66
2024/05/05 04:46:01;;;;;;;23.40;18.87;;;11.60;99.90;;;;;;5380150;26;19996;-67
2024/05/05 04:48:26;;;;;;;21.30;18.00;;;11.60;99.90;;;;;;5380909;26;20589;-67
2024/05/05 04:50:52;;;;;;;23.83;17.73;;;11.60;99.90;;;;;;5380668;26;20000;-68
2024/05/05 04:53:18;;;;;;;20.80;17.43;;;11.60;99.90;;;;;;5381220;26;20403;-68
2024/05/05 04:55:44;;;;;;;21.47;17.60;;;11.60;99.90;;;;;;5380777;26;20597;-67
2024/05/05 04:58:09;;;;;;;21.95;16.58;;;11.60;99.90;;;;;;5380438;26;20366;-68
2024/05/05 05:00:35;;;;;;;19.83;16.13;;;11.60;99.90;;;;;;5381091;26;20334;-68
2024/05/05 05:03:05;;;;;;;18.45;16.27;;;11.60;99.90;;;;;;5407457;26;20357;-67
2024/05/05 05:05:32;;;;;;;18.77;16.77;;;11.60;99.90;;;;;;5380677;26;20006;-68
2024/05/05 05:07:58;;;;;;;19.53;15.90;;;11.60;99.90;;;;;;5379907;26;20011;-67
2024/05/05 05:10:48;;;;;;;17.58;15.65;;;11.70;99.90;;;;;;5379150;26;20239;-67
2024/05/05 05:13:14;;;;;;;20.08;16.13;;;11.60;99.90;;;;;;5380666;26;20334;-68
2024/05/05 05:15:39;;;;;;;20.73;16.42;;;11.70;99.90;;;;;;5380661;26;20020;-67
2024/05/05 05:18:09;;;;;;;19.35;17.25;;;11.60;99.90;;;;;;5379849;26;20011;-67
2024/05/05 05:20:35;;;;;;;20.08;16.80;;;11.70;99.90;;;;;;5380540;26;20016;-67
2024/05/05 05:23:04;;;;;;;20.97;15.87;;;11.60;99.90;;;;;;5380184;26;20084;-67
2024/05/05 05:25:29;;;;;;;19.88;17.02;;;11.60;99.90;;;;;;5380370;26;20133;-67
2024/05/05 05:28:15;;;;;;;21.55;16.35;;;11.60;99.90;;;;;;5378269;26;20073;-67
2024/05/05 05:30:41;;;;;;;19.02;17.02;;;11.60;99.90;;;;;;5408387;26;20007;-67
2024/05/05 05:33:07;;;;;;;23.17;17.70;;;11.60;99.90;;;;;;5380349;26;20012;-67
2024/05/05 05:35:33;;;;;;;19.73;17.43;;;11.70;99.90;;;;;;5380116;26;20090;-67
2024/05/05 05:37:58;;;;;;;23.00;16.77;;;11.70;99.90;;;;;;5379458;26;20000;-67
2024/05/05 05:40:24;;;;;;;21.23;16.80;;;11.70;99.90;;;;;;5379984;26;20230;-67
2024/05/05 05:42:50;;;;;;;20.70;15.57;;;11.70;99.90;;;;;;5380195;26;20011;-68
2024/05/05 05:45:15;;;;;;;21.53;14.10;;;11.80;99.90;;;;;;5380291;26;20277;-68
2024/05/05 05:47:44;;;;;;;20.00;13.37;;;11.80;99.90;;;;;;5379451;26;20000;-68
2024/05/05 05:50:10;;;;;;;18.50;13.50;;;11.80;99.90;;;;;;5379958;26;20040;-68
2024/05/05 05:52:40;;;;;;;15.90;11.90;;;11.80;99.90;;;;;;5380546;26;20000;-68
2024/05/05 05:55:06;;;;;;;12.65;10.23;;;11.90;99.90;;;;;;5380179;26;20029;-68
2024/05/05 05:57:32;;;;;;;15.55;10.38;;;11.90;99.90;;;;;;5379665;26;20077;-68
2024/05/05 05:59:58;;;;;;;13.13;10.17;;;12.00;99.90;;;;;;5379641;26;20008;-67
2024/05/05 06:02:24;;;;;;;12.82;9.00;;;12.00;99.90;;;;;;5380021;26;20015;-67
2024/05/05 06:04:49;;;;;;;13.47;9.70;;;12.00;99.90;;;;;;5379273;26;19996;-67
2024/05/05 06:07:15;;;;;;;10.83;8.03;;;12.00;99.90;;;;;;5379057;26;20073;-66
2024/05/05 06:09:41;;;;;;;11.43;8.17;;;12.00;99.90;;;;;;5379812;26;20660;-67
2024/05/05 06:12:07;;;;;;;8.60;7.00;;;12.00;99.90;;;;;;5379417;26;20008;-67
2024/05/05 06:14:33;;;;;;;10.23;6.88;;;12.00;99.90;;;;;;5380086;26;20438;-67
2024/05/05 06:16:59;;;;;;;9.38;6.53;;;12.00;99.90;;;;;;5379161;26;20011;-67
2024/05/05 06:19:25;;;;;;;;;;;11.90;99.90;;;;;;5380310;26;20011;-66
2024/05/05 06:21:51;;;;;;;7.70;5.68;;;11.90;99.90;;;;;;5379172;26;19925;-67
2024/05/05 06:24:17;;;;;;;5.10;4.30;;;11.90;99.90;;;;;;5379482;26;20004;-67
2024/05/05 06:26:43;;;;;;;5.93;3.13;;;11.90;99.90;;;;;;5379175;26;20011;-66
2024/05/05 06:29:08;;;;;;;3.43;2.50;;;11.80;99.90;;;;;;5379378;26;20011;-67
2024/05/05 06:31:34;;;;;;;3.90;2.15;;;11.70;99.90;;;;;;5379546;26;20458;-64
2024/05/05 06:34:00;;;;;;;5.27;2.40;;;11.70;99.90;;;;;;5379089;26;20011;-66
2024/05/05 06:36:26;;;;;;;3.85;2.30;;;11.60;99.90;;;;;;5378825;26;20000;-67
2024/05/05 06:38:51;;;;;;;3.43;2.50;;;11.60;99.90;;;;;;5377258;26;20460;-67
2024/05/05 06:41:17;;;;;;;3.10;2.77;;;11.60;99.90;;;;;;5379321;26;20000;-67
2024/05/05 06:43:43;;;;;;;4.33;3.20;;;11.60;99.90;;;;;;5379510;26;20029;-66
2024/05/05 06:46:09;;;;;;;4.97;3.80;;;11.60;99.90;;;;;;5378765;26;20336;-67
2024/05/05 06:48:35;;;;;;;6.22;4.43;;;11.60;99.90;;;;;;5378934;26;20226;-68
2024/05/05 06:51:00;;;;;;;5.73;4.77;;;11.60;99.90;;;;;;5379637;26;20000;-65
2024/05/05 06:53:26;;;;;;;5.90;4.30;;;11.60;99.90;;;;;;5378808;26;20234;-67
2024/05/05 06:55:52;;;;;;;8.57;5.03;;;11.60;99.90;;;;;;5379180;26;20476;-67
2024/05/05 06:58:18;;;;;;;8.98;4.85;;;11.50;99.90;;;;;;5378902;26;19996;-67
2024/05/05 07:00:44;;;;;;;5.88;4.47;;;11.60;99.90;;;;;;5379506;26;20000;-66
2024/05/05 07:03:13;;;;;;;4.50;4.10;;;11.60;99.90;;;;;;5406722;26;20000;-66
2024/05/05 07:05:39;;;;;;;4.63;4.10;;;11.50;99.90;;;;;;5378989;26;20002;-65
2024/05/05 07:08:05;;;;;;;5.37;4.40;;;11.50;99.90;;;;;;5378361;26;20000;-66
2024/05/05 07:10:30;;;;;;;5.57;4.65;;;11.40;99.90;;;;;;5379059;26;20758;-66
2024/05/05 07:12:56;;;;;;;5.13;4.63;;;11.40;99.90;;;;;;5378709;26;20000;-66
2024/05/05 07:15:22;;;;;;;5.37;4.87;;;11.40;99.90;;;;;;5378922;26;20008;-65
2024/05/05 07:17:49;;;;;;;6.23;5.40;;;11.40;99.90;;;;;;5376292;26;20635;-65
2024/05/05 07:20:15;;;;;;;6.72;5.88;;;11.40;99.90;;;;;;5378530;26;20397;-65
2024/05/05 07:22:41;;;;;;;6.50;5.83;;;11.40;99.90;;;;;;5376974;26;19997;-65
2024/05/05 07:25:07;;;;;;;7.20;6.50;;;11.30;99.90;;;;;;5378734;26;19999;-65
2024/05/05 07:27:33;;;;;;;6.72;6.03;;;11.40;99.90;;;;;;5378537;26;20442;-65
2024/05/05 07:29:59;;;;;;;7.53;6.73;;;11.40;99.90;;;;;;5378281;26;20074;-65
2024/05/05 07:32:25;;;;;;;9.10;7.53;;;11.30;99.90;;;;;;5378676;26;20048;-63
2024/05/05 07:34:51;;;;;;;8.30;7.50;;;11.30;99.90;;;;;;5378737;26;20329;-64
2024/05/05 07:37:16;;;;;;;9.23;8.07;;;11.30;99.90;;;;;;5377923;26;20608;-63
2024/05/05 07:39:42;;;;;;;12.80;9.00;;;11.30;99.90;;;;;;5378587;26;20000;-63
2024/05/05 07:42:08;;;;;;;11.03;9.93;;;11.40;99.90;;;;;;5378846;26;20000;-64
2024/05/05 07:44:34;;;;;;;14.00;11.27;;;11.40;99.90;;;;;;5379147;26;20230;-63
2024/05/05 07:46:59;;;;;;;13.77;11.90;;;11.30;99.90;;;;;;5375783;26;20088;-64
2024/05/05 07:49:25;;;;;;;13.37;11.40;;;11.40;99.90;;;;;;5406348;26;20009;-64
2024/05/05 07:51:53;;;;;;;15.03;11.90;;;11.40;99.90;;;;;;5377718;26;20004;-64
2024/05/05 07:54:18;;;;;;;14.57;13.00;;;11.40;99.90;;;;;;5378465;26;20061;-64
2024/05/05 07:56:44;;;;;;;15.33;13.63;;;11.40;99.90;;;;;;5377706;26;20008;-64
2024/05/05 07:59:11;;;;;;;14.83;13.33;;;11.40;99.90;;;;;;5378884;26;20080;-63
2024/05/05 08:01:37;;;;;;;16.25;12.80;;;11.30;99.90;;;;;;5378401;26;20404;-63
2024/05/05 08:04:03;;;;;;;18.87;13.67;;;11.40;99.90;;;;;;5376852;26;20033;-62
2024/05/05 08:06:28;;;;;;;19.48;15.43;;;11.40;99.90;;;;;;5377346;26;20000;-63
2024/05/05 08:08:54;;;;;;;18.60;14.10;;;11.40;99.90;;;;;;5377941;26;20012;-62
2024/05/05 08:11:20;;;;;;;18.42;15.55;;;11.40;99.90;;;;;;5378222;26;20000;-59
2024/05/05 08:13:46;;;;;;;24.47;13.80;;;11.40;99.90;;;;;;5378443;26;20523;-60
2024/05/05 08:16:12;;;;;;;17.57;14.33;;;11.40;99.90;;;;;;5376991;26;20593;-62
2024/05/05 08:18:37;;;;;;;17.07;13.30;;;11.40;99.90;;;;;;5377534;26;20565;-61
2024/05/05 08:21:06;;;;;;;;;;;11.50;99.90;;;;;;5377636;26;19996;-60
2024/05/05 08:23:34;;;;;;;19.63;13.68;;;11.50;99.90;;;;;;5377745;26;19925;-62
2024/05/05 08:26:00;;;;;;;15.52;13.10;;;11.60;99.90;;;;;;5377144;26;20004;-60
2024/05/05 08:28:25;;;;;;;16.63;12.93;;;11.60;99.90;;;;;;5377761;26;20011;-61
2024/05/05 08:30:51;;;;;;;13.37;12.07;;;11.60;99.90;;;;;;5376999;26;20000;-61
2024/05/05 08:33:17;;;;;;;14.40;11.07;;;11.70;99.90;;;;;;5377294;26;20482;-61
2024/05/05 08:35:43;;;;;;;12.27;11.00;;;11.70;99.90;;;;;;5377605;26;20000;-62
2024/05/05 08:38:09;;;;;;;12.02;9.07;;;11.70;99.90;;;;;;5376708;26;19996;-60
2024/05/05 08:40:36;;;;;;;8.75;7.32;;;11.80;99.90;;;;;;5377467;26;20471;-60
2024/05/05 08:43:05;;;;;;;8.60;6.53;;;11.80;99.90;;;;;;5377031;26;20046;-61
2024/05/05 08:45:37;;;;;;;7.70;6.30;;;11.80;99.90;;;;;;5377288;26;20011;-60
2024/05/05 08:48:09;;;;;;;8.15;6.50;;;11.80;99.90;;;;;;5376434;26;20012;-60
2024/05/05 08:50:39;;;;;;;7.55;5.57;;;11.80;99.90;;;;;;5377752;26;20065;-61
2024/05/05 08:53:06;;;;;;;7.70;4.70;;;11.80;99.90;;;;;;5376919;26;20074;-61
2024/05/05 08:55:31;;;;;;;;;;;11.80;99.90;;;;;;5377941;26;20493;-60
2024/05/05 08:57:57;;;;;;;5.00;4.40;;;11.80;99.90;;;;;;5376497;26;19994;-60
2024/05/05 09:00:24;;;;;;;6.47;4.25;;;11.80;99.90;;;;;;5377153;26;20334;-61
2024/05/05 09:02:51;;;;;;;4.93;3.65;;;11.80;99.90;;;;;;5377036;26;20007;-60
2024/05/05 09:05:38;;;;;;;4.65;3.90;;;11.80;99.90;;;;;;5377766;26;20012;-60
2024/05/05 09:08:04;;;;;;;6.07;3.88;;;11.80;99.90;;;;;;5376656;26;20081;-61
2024/05/05 09:10:34;;;;;;;4.63;3.75;;;11.90;99.90;;;;;;5377117;26;20024;-59
2024/05/05 09:13:01;;;;;;;5.60;3.45;;;11.90;99.90;;;;;;5376346;26;20032;-60
2024/05/05 09:15:27;;;;;;;5.30;2.83;;;12.00;99.90;;;;;;5377365;26;20010;-59
2024/05/05 09:17:53;;;;;;;4.57;2.97;;;11.90;99.90;;;;;;5379844;26;20349;-58
2024/05/05 09:20:19;;;;;;;4.20;2.75;;;12.00;99.90;;;;;;5380518;26;20608;-58
2024/05/05 09:22:46;;;;;;;;;;;12.00;99.90;;;;;;5380899;26;20000;-58
2024/05/05 09:25:12;;;;;;;3.65;2.22;;;12.00;99.90;;;;;;5379951;26;19932;-59
2024/05/05 09:27:37;;;;;;;2.65;1.85;;;12.00;99.90;;;;;;5379739;26;20011;-59
2024/05/05 09:30:08;;;;;;;4.30;1.90;;;12.10;99.90;;;;;;5379929;26;20007;-60
2024/05/05 09:32:35;;;;;;;2.20;1.63;;;12.20;99.90;;;;;;5380459;26;20008;-59
2024/05/05 09:35:02;;;;;;;2.55;1.42;;;12.20;99.90;;;;;;5379963;26;20094;-60
2024/05/05 09:37:31;;;;;;;3.33;1.40;;;12.20;99.90;;;;;;5380189;26;20000;-59
2024/05/05 09:39:58;;;;;;;2.28;1.40;;;12.20;99.90;;;;;;5379670;26;20000;-59
2024/05/05 09:42:24;;;;;;;4.05;1.58;;;12.20;99.90;;;;;;5380234;26;20011;-59
2024/05/05 09:44:50;;;;;;;2.42;1.50;;;12.20;99.90;;;;;;5379834;26;20008;-60
2024/05/05 09:47:21;;;;;;;6.03;1.57;;;12.20;99.90;;;;;;5379405;26;20007;-59
2024/05/05 09:50:01;;;;;;;3.35;1.50;;;12.10;99.90;;;;;;5380808;26;20675;-60
2024/05/05 09:52:49;;;;;;;3.72;1.73;;;12.00;99.90;;;;;;5379872;26;20000;-60
2024/05/05 09:55:19;;;;;;;4.13;1.90;;;12.00;99.90;;;;;;5379846;26;19996;-59
2024/05/05 09:57:58;;;;;;;5.63;2.10;;;11.90;99.90;;;;;;5379559;26;20077;-59
2024/05/05 10:00:24;;;;;;;7.13;2.45;;;11.90;99.90;;;;;;5380269;26;20011;-59
2024/05/05 10:02:55;;;;;;;5.50;2.33;;;11.80;99.90;;;;;;5379508;26;20001;-59
2024/05/05 10:05:22;;;;;;;4.18;2.05;;;11.80;99.90;;;;;;5379645;26;19996;-59
2024/05/05 10:07:49;;;;;;;4.45;2.50;;;11.70;99.90;;;;;;5379089;26;20004;-61
2024/05/05 10:10:20;;;;;;;4.72;2.80;;;11.70;99.90;;;;;;5379798;26;20012;-59
2024/05/05 10:12:50;;;;;;;5.68;2.58;;;11.80;99.90;;;;;;5379658;26;20530;-59
2024/05/05 10:15:17;;;;;;;4.70;2.95;;;11.90;99.90;;;;;;5379540;26;19996;-61
2024/05/05 10:17:42;;;;;;;6.88;2.70;;;12.00;99.90;;;;;;5379036;26;20008;-60
2024/05/05 10:20:09;;;;;;;3.95;2.60;;;12.10;99.90;;;;;;5379411;26;20505;-59
2024/05/05 10:22:35;;;;;;;6.07;3.05;;;12.20;99.90;;;;;;5379820;26;20065;-59
2024/05/05 10:25:03;;;;;;;5.25;2.92;;;12.30;99.90;;;;;;5379366;26;19993;-58
2024/05/05 10:27:29;;;;;;;9.07;3.50;;;12.40;99.90;;;;;;5377958;26;20036;-61
2024/05/05 10:29:58;;;;;;;5.70;3.10;;;12.50;99.90;;;;;;5379034;26;20066;-60
2024/05/05 10:32:24;;;;;;;9.35;3.53;;;12.50;99.90;;;;;;5380061;26;20466;-59
2024/05/05 10:34:54;;;;;;;9.73;3.63;;;12.40;99.90;;;;;;5379676;26;20353;-59
2024/05/05 10:37:20;;;;;;;6.35;3.60;;;12.40;99.90;;;;;;5379364;26;20007;-59
2024/05/05 10:39:46;;;;;;;;;;;12.40;99.90;;;;;;5380273;26;20000;-59
2024/05/05 10:42:13;;;;;;;8.98;4.45;;;12.30;99.90;;;;;;5379174;26;19925;-60
2024/05/05 10:44:38;;;;;;;6.95;4.15;;;12.40;99.90;;;;;;5379276;26;20030;-62
2024/05/05 10:47:06;;;;;;;7.55;4.50;;;12.40;99.90;;;;;;5378995;26;19996;-61
2024/05/05 10:49:32;;;;;;;9.45;4.32;;;12.60;99.90;;;;;;5379329;26;20028;-58
2024/05/05 10:52:00;;;;;;;11.27;4.22;;;12.70;99.90;;;;;;5379024;26;20023;-58
2024/05/05 10:54:27;;;;;;;7.07;3.97;;;12.90;99.90;;;;;;5379218;26;20001;-59
2024/05/05 10:56:54;;;;;;;6.75;3.72;;;13.10;99.90;;;;;;5378494;26;20453;-62
2024/05/05 10:59:22;;;;;;;8.10;3.33;;;13.40;99.90;;;;;;5379025;26;20011;-58
2024/05/05 11:01:51;;;;;;;5.05;3.30;;;13.60;99.90;;;;;;5379000;26;20027;-64
2024/05/05 11:04:20;;;;;;;5.82;3.33;;;13.80;99.90;;;;;;5378936;26;20000;-58
2024/05/05 11:06:47;;;;;;;5.60;3.58;;;14.00;99.90;;;;;;5378664;26;20000;-58
2024/05/05 11:09:13;;;;;;;8.00;3.92;;;14.30;99.90;;;;;;5378890;26;20457;-61
2024/05/05 11:11:39;;;;;;;5.60;3.00;;;14.50;99.90;;;;;;5378811;26;20007;-59
2024/05/05 11:14:08;;;;;;;4.53;3.17;;;14.70;99.90;;;;;;5378515;26;20325;-62
2024/05/05 11:16:43;;;;;;;5.57;3.22;;;15.00;99.90;;;;;;5378433;26;20003;-59
2024/05/05 11:19:09;;;;;;;7.28;3.33;;;15.30;99.90;;;;;;5378481;26;20008;-62
2024/05/05 11:21:35;;;;;;;3.13;2.80;;;15.50;99.90;;;;;;5378778;26;20007;-59
2024/05/05 11:24:02;;;;;;;3.27;2.67;;;15.70;99.90;;;;;;5378531;26;20069;-60
2024/05/05 11:26:29;;;;;;;4.80;2.70;;;15.70;99.90;;;;;;5378086;26;20302;-60
2024/05/05 11:28:55;;;;;;;3.95;2.35;;;15.70;99.90;;;;;;5378211;26;20000;-60
2024/05/05 11:31:21;;;;;;;6.35;2.65;;;15.70;99.90;;;;;;5378688;26;20337;-60
2024/05/05 11:33:47;;;;;;;5.25;2.50;;;15.60;99.90;;;;;;5378854;26;20015;-60
2024/05/05 11:36:13;;;;;;;3.22;2.30;;;15.60;99.90;;;;;;5377998;26;20330;-64
2024/05/05 11:38:39;;;;;;;3.78;2.28;;;15.50;99.90;;;;;;5376761;26;20112;-64
2024/05/05 11:41:07;;;;;;;3.53;2.30;;;15.60;99.90;;;;;;5378337;26;20478;-63
2024/05/05 11:43:39;;;;;;;4.55;2.40;;;15.80;99.90;;;;;;5378749;26;20035;-60
2024/05/05 11:46:05;;;;;;;5.28;2.42;;;16.00;99.90;;;;;;5378322;26;19996;-60
2024/05/05 11:49:09;;;;;;;3.42;2.28;;;16.20;99.90;;;;;;5378882;26;20069;-67
2024/05/05 11:51:35;;;;;;;3.65;2.03;;;16.50;99.90;;;;;;5378930;26;20434;-59
2024/05/05 11:54:02;;;;;;;4.35;2.40;;;16.60;99.90;;;;;;5378668;26;20000;-60
2024/05/05 11:56:28;;;;;;;3.95;2.25;;;16.60;99.90;;;;;;5378121;26;20069;-62
2024/05/05 11:58:54;;;;;;;6.72;5.13;;;16.60;99.90;;;;;;5378142;26;20008;-60
2024/05/05 12:01:24;;;;;;;14.20;10.32;;;16.60;99.90;;;;;;5378263;26;20069;-61
2024/05/05 12:03:50;;;;;;;4.45;2.55;;;16.60;99.90;;;;;;5377985;26;20000;-61
2024/05/05 12:06:16;;;;;;;5.10;2.60;;;16.60;99.90;;;;;;5377683;26;19996;-62
2024/05/05 12:08:43;;;;;;;4.90;2.03;;;16.60;99.90;;;;;;5378617;26;20445;-61
2024/05/05 12:11:10;;;;;;;4.07;2.13;;;16.60;99.90;;;;;;5378257;26;19997;-63
2024/05/05 12:13:35;;;;;;;3.65;1.95;;;16.70;99.90;;;;;;5377995;26;20024;-66
2024/05/05 12:16:25;;;;;;;1.88;1.40;;;16.60;99.90;;;;;;5378110;26;20007;-63
2024/05/05 12:19:02;;;;;;;2.80;1.60;;;16.70;99.90;;;;;;5377665;26;20000;-65
2024/05/05 12:21:29;;;;;;;1.42;1.30;;;16.70;99.90;;;;;;5378185;26;20338;-62
2024/05/05 12:23:55;;;;;;;2.92;1.50;;;16.70;99.90;;;;;;5378095;26;20044;-62
2024/05/05 12:26:37;;;;;;;1.58;1.40;;;16.80;99.90;;;;;;5377458;26;20070;-63
2024/05/05 12:29:23;;;;;;;3.30;1.40;;;16.90;99.90;;;;;;5377623;26;20055;-64
2024/05/05 12:32:01;;;;;;;3.30;1.60;;;17.00;99.90;;;;;;5377760;26;20007;-67
2024/05/05 12:34:29;;;;;;;2.50;1.55;;;17.00;99.90;;;;;;5377979;26;20004;-66
2024/05/05 12:36:58;;;;;;;1.50;1.40;;;17.00;99.90;;;;;;5377035;26;20015;-63